Aérodrome :
LOGIN :

S'inscrire | Disclaimer

   EN    FR    IT 

 










Légende :    VFR   VFR Marginal   IFR   IFR Intensif   IFR Très Intensif
Visi : 
Plafond : 
>= 8 km
>= 3000ft
5 à 8 km
1000 à 3000 ft
1500m à 5 km
500 à 1000 ft
800 à 1500m
200 à 500 ft
< 800m
< 200 ft
Symboles :   Orages  Brouillard  Fortes neiges  Fortes précipitations  Vent > 20 kt
SIGMETs :   Divers  Orages  Givrage  Turbulence  Onde Orograph.  Cendres Volcan.







- Altitude de l'aérodrome : 300 ft
- Code IATA : MLA


LMML - Malta Luqa

DERNIER METAR :
  • 291715Z 32014KT 9000 FEW020 18/13 Q1009 NOSIG

METARs EXPIRÉS :
  • 291645Z 32015KT 9999 FEW020 19/13 Q1009 NOSIG
  • 291615Z 30015KT CAVOK 20/13 Q1008 NOSIG
  • 291545Z 32015KT CAVOK 21/13 Q1008 NOSIG
  • 291515Z 32016KT CAVOK 22/13 Q1008 NOSIG
  • 291445Z 32017KT CAVOK 22/13 Q1008 NOSIG

TAF TAF LMML
Valide du 29 à 18h jusqu'au 30 à 18h UTC


291700Z 2918/3018 30010KT CAVOK
Pas de NOTAMs connus pour ce terrain.



MET'MAP, la Météo Aéronautique d'un coup d'oeil ! - Copyright ORBIFLY Décembre 2007 - Disclaimer

ORBIFLY MET'MAP TEAM :

Programmation & Développement : Alexandra Zaïnal
Conception & Développement : Baudouin d'Aumeries
Co-Programmation & Développement : Marc-Olivier Méhu
Soutien technique & logistique : Manuel Goepfert

Contact : metmap@orbifly.com




SOURCES & CREDITS :

   NOAA